createdAt,value
2016-11-22T00:00:48.548Z,0
2016-11-22T00:01:48.252Z,0
2016-11-22T00:02:48.902Z,0
2016-11-22T00:03:48.955Z,0
2016-11-22T00:04:48.633Z,0
2016-11-22T00:05:48.971Z,0
2016-11-22T00:06:48.995Z,0
2016-11-22T00:07:49.018Z,0
2016-11-22T00:08:49.065Z,0
2016-11-22T00:09:49.059Z,0
2016-11-22T00:10:49.103Z,0
2016-11-22T00:11:48.823Z,0
2016-11-22T00:12:49.443Z,0
2016-11-22T00:13:49.149Z,0
2016-11-22T00:14:49.503Z,0
2016-11-22T00:15:49.519Z,0
2016-11-22T00:16:48.907Z,0
2016-11-22T00:17:48.599Z,0
2016-11-22T00:18:49.275Z,0
2016-11-22T00:20:03.852Z,0
2016-11-22T00:20:49.293Z,0
2016-11-22T00:21:48.687Z,0
2016-11-22T00:22:49.342Z,0
2016-11-22T00:23:49.045Z,0
2016-11-22T00:24:49.701Z,0
2016-11-22T00:25:50.047Z,0
2016-11-22T00:26:49.425Z,0
2016-11-22T00:27:49.455Z,0
2016-11-22T00:28:49.472Z,0
2016-11-22T00:29:48.894Z,0
2016-11-22T00:30:49.544Z,0
2016-11-22T00:31:49.249Z,0
2016-11-22T00:32:48.933Z,0
2016-11-22T00:33:49.595Z,0
2016-11-22T00:34:49.599Z,0
2016-11-22T00:35:49.000Z,0
2016-11-22T00:36:49.049Z,0
2016-11-22T00:37:49.039Z,0
2016-11-22T00:38:49.383Z,0
2016-11-22T00:39:49.404Z,0
2016-11-22T00:40:50.054Z,0
2016-11-22T00:41:50.388Z,0
2016-11-22T00:42:50.412Z,0
2016-11-22T00:43:49.815Z,0
2016-11-22T00:44:50.137Z,0
2016-11-22T00:45:50.480Z,0
2016-11-22T00:46:49.862Z,0
2016-11-22T00:47:49.894Z,0
2016-11-22T00:48:49.280Z,0
2016-11-22T00:49:49.937Z,0
2016-11-22T00:50:49.347Z,0
2016-11-22T00:51:49.992Z,0
2016-11-22T00:52:50.001Z,0
2016-11-22T00:53:50.357Z,0
2016-11-22T00:54:50.046Z,0
2016-11-22T00:55:50.071Z,0
2016-11-22T00:56:50.090Z,0
2016-11-22T00:57:49.795Z,0
2016-11-22T00:58:50.479Z,0
2016-11-22T00:59:50.464Z,0
2016-11-22T01:00:50.821Z,0
2016-11-22T01:01:50.208Z,0
2016-11-22T01:02:49.902Z,0
2016-11-22T01:03:50.241Z,0
2016-11-22T01:04:50.900Z,0
2016-11-22T01:05:49.659Z,0
2016-11-22T01:06:50.339Z,0
2016-11-22T01:07:50.329Z,0
2016-11-22T01:08:50.037Z,0
2016-11-22T01:09:50.062Z,0
2016-11-22T01:10:50.082Z,0
2016-11-22T01:11:50.418Z,0
2016-11-22T01:12:50.795Z,0
2016-11-22T01:13:50.502Z,0
2016-11-22T01:14:50.174Z,0
2016-11-22T01:15:50.190Z,0
2016-11-22T01:16:50.535Z,0
2016-11-22T01:17:50.871Z,0
2016-11-22T01:18:50.894Z,0
2016-11-22T01:19:50.600Z,0
2016-11-22T01:20:50.639Z,0
2016-11-22T01:21:50.015Z,0
2016-11-22T01:22:50.666Z,0
2016-11-22T01:23:50.060Z,0
2016-11-22T01:24:51.342Z,0
2016-11-22T01:25:50.413Z,0
2016-11-22T01:26:50.438Z,0
2016-11-22T01:27:50.471Z,0
2016-11-22T01:28:50.802Z,0
2016-11-22T01:29:50.517Z,0
2016-11-22T01:30:51.164Z,0
2016-11-22T01:31:51.184Z,0
2016-11-22T01:32:50.890Z,0
2016-11-22T01:33:51.233Z,0
2016-11-22T01:34:50.938Z,0
2016-11-22T01:35:51.284Z,0
2016-11-22T01:36:50.658Z,0
2016-11-22T01:37:50.691Z,0
2016-11-22T01:38:51.028Z,0
2016-11-22T01:39:50.419Z,0
2016-11-22T01:40:50.754Z,0
2016-11-22T01:41:50.774Z,0
2016-11-22T01:42:51.118Z,0
2016-11-22T01:43:51.456Z,0
2016-11-22T01:44:50.529Z,0
2016-11-22T01:45:50.864Z,0
2016-11-22T01:46:51.203Z,0
2016-11-22T01:47:51.543Z,0
2016-11-22T01:48:50.937Z,0
2016-11-22T01:49:51.589Z,0
2016-11-22T01:50:50.998Z,0
2016-11-22T01:51:51.005Z,0
2016-11-22T01:52:51.341Z,0
2016-11-22T01:53:51.675Z,0
2016-11-22T01:54:51.395Z,0
2016-11-22T01:55:50.775Z,0
2016-11-22T01:56:51.432Z,0
2016-11-22T01:57:51.454Z,0
2016-11-22T01:58:51.490Z,0
2016-11-22T01:59:51.502Z,0
2016-11-22T02:00:51.520Z,0
2016-11-22T02:01:52.196Z,0
2016-11-22T02:02:51.559Z,0
2016-11-22T02:03:51.593Z,0
2016-11-22T02:04:51.296Z,0
2016-11-22T02:05:51.665Z,0
2016-11-22T02:06:51.338Z,0
2016-11-22T02:07:51.679Z,0
2016-11-22T02:08:51.386Z,0
2016-11-22T02:09:52.060Z,0
2016-11-22T02:10:51.123Z,0
2016-11-22T02:11:51.776Z,0
2016-11-22T02:12:52.108Z,0
2016-11-22T02:13:52.149Z,0
2016-11-22T02:14:51.858Z,0
2016-11-22T02:15:51.553Z,0
2016-11-22T02:16:51.886Z,0
2016-11-22T02:17:51.596Z,0
2016-11-22T02:18:51.302Z,0
2016-11-22T02:19:51.676Z,0
2016-11-22T02:20:51.985Z,0
2016-11-22T02:21:51.708Z,0
2016-11-22T02:22:51.714Z,0
2016-11-22T02:23:52.052Z,0
2016-11-22T02:24:52.071Z,0
2016-11-22T02:25:52.121Z,0
2016-11-22T02:26:52.125Z,0
2016-11-22T02:27:52.142Z,0
2016-11-22T02:28:52.164Z,0
2016-11-22T02:29:52.512Z,0
2016-11-22T02:30:51.898Z,0
2016-11-22T02:31:52.236Z,0
2016-11-22T02:32:52.261Z,0
2016-11-22T02:33:52.676Z,0
2016-11-22T02:34:52.619Z,0
2016-11-22T02:35:51.695Z,0
2016-11-22T02:36:52.664Z,0
2016-11-22T02:37:52.077Z,0
2016-11-22T02:38:52.721Z,0
2016-11-22T02:39:52.111Z,0
2016-11-22T02:40:52.452Z,0
2016-11-22T02:41:52.782Z,0
2016-11-22T02:42:52.170Z,0
2016-11-22T02:43:51.880Z,0
2016-11-22T02:44:51.905Z,0
2016-11-22T02:45:52.567Z,0
2016-11-22T02:46:52.588Z,0
2016-11-22T02:47:52.607Z,0
2016-11-22T02:48:52.337Z,0
2016-11-22T02:49:52.966Z,0
2016-11-22T02:50:52.365Z,0
2016-11-22T02:51:52.404Z,0
2016-11-22T02:52:52.734Z,0
2016-11-22T02:53:52.435Z,0
2016-11-22T02:54:53.324Z,0
2016-11-22T02:55:53.114Z,0
2016-11-22T02:56:52.834Z,0
2016-11-22T02:57:53.159Z,0
2016-11-22T02:58:52.868Z,0
2016-11-22T02:59:52.573Z,0
2016-11-22T03:00:53.226Z,0
2016-11-22T03:01:52.619Z,0
2016-11-22T03:02:52.660Z,0
2016-11-22T03:03:53.297Z,0
2016-11-22T03:04:53.010Z,0
2016-11-22T03:05:53.869Z,0
2016-11-22T03:06:53.731Z,0
2016-11-22T03:07:53.075Z,0
2016-11-22T03:08:53.423Z,0
2016-11-22T03:09:53.440Z,0
2016-11-22T03:10:53.465Z,0
2016-11-22T03:11:53.170Z,0
2016-11-22T03:12:52.879Z,0
2016-11-22T03:13:53.222Z,0
2016-11-22T03:14:53.253Z,0
2016-11-22T03:15:53.597Z,0
2016-11-22T03:16:53.285Z,0
2016-11-22T03:17:53.315Z,0
2016-11-22T03:18:53.329Z,0
2016-11-22T03:19:53.673Z,0
2016-11-22T03:20:53.086Z,0
2016-11-22T03:21:52.777Z,0
2016-11-22T03:22:53.422Z,0
2016-11-22T03:23:53.149Z,0
2016-11-22T03:24:53.163Z,0
2016-11-22T03:25:53.170Z,0
2016-11-22T03:26:53.832Z,0
2016-11-22T03:27:53.881Z,0
2016-11-22T03:28:53.564Z,0
2016-11-22T03:29:53.588Z,0
2016-11-22T03:30:53.927Z,0
2016-11-22T03:31:53.639Z,0
2016-11-22T03:32:53.363Z,0
2016-11-22T03:33:54.003Z,0
2016-11-22T03:34:53.724Z,0
2016-11-22T03:35:54.353Z,0
2016-11-22T03:36:53.128Z,0
2016-11-22T03:37:53.136Z,0
2016-11-22T03:38:54.117Z,0
2016-11-22T03:39:53.507Z,0
2016-11-22T03:40:54.211Z,0
2016-11-22T03:41:53.577Z,0
2016-11-22T03:42:53.894Z,0
2016-11-22T03:43:53.915Z,0
2016-11-22T03:44:53.939Z,0
2016-11-22T03:45:53.334Z,0
2016-11-22T03:46:53.986Z,0
2016-11-22T03:47:54.011Z,0
2016-11-22T03:48:54.081Z,0
2016-11-22T03:49:54.370Z,0
2016-11-22T03:50:54.415Z,0
2016-11-22T03:51:53.789Z,0
2016-11-22T03:52:54.126Z,0
2016-11-22T03:53:53.837Z,0
2016-11-22T03:54:53.577Z,0
2016-11-22T03:55:53.878Z,0
2016-11-22T03:56:53.902Z,0
2016-11-22T03:57:54.248Z,0
2016-11-22T03:58:54.265Z,0
2016-11-22T03:59:54.289Z,0
2016-11-22T04:00:54.034Z,0
2016-11-22T04:01:54.967Z,0
2016-11-22T04:02:54.046Z,0
2016-11-22T04:03:54.393Z,0
2016-11-22T04:04:54.419Z,0
2016-11-22T04:05:54.431Z,0
2016-11-22T04:06:54.139Z,0
2016-11-22T04:07:54.161Z,0
2016-11-22T04:08:54.193Z,0
2016-11-22T04:09:54.549Z,0
2016-11-22T04:10:54.872Z,0
2016-11-22T04:11:54.882Z,0
2016-11-22T04:12:54.277Z,0
2016-11-22T04:13:54.615Z,0
2016-11-22T04:14:54.635Z,0
2016-11-22T04:15:54.347Z,0
2016-11-22T04:16:55.001Z,0
2016-11-22T04:17:55.367Z,0
2016-11-22T04:18:54.414Z,0
2016-11-22T04:19:54.766Z,0
2016-11-22T04:20:54.782Z,0
2016-11-22T04:21:55.143Z,0
2016-11-22T04:22:54.829Z,0
2016-11-22T04:23:55.156Z,0
2016-11-22T04:24:54.555Z,0
2016-11-22T04:25:54.576Z,0
2016-11-22T04:26:54.281Z,0
2016-11-22T04:27:54.616Z,0
2016-11-22T04:28:54.950Z,0
2016-11-22T04:29:54.664Z,0
2016-11-22T04:30:54.684Z,0
2016-11-22T04:31:55.052Z,0
2016-11-22T04:32:55.051Z,0
2016-11-22T04:33:55.385Z,0
2016-11-22T04:34:55.094Z,0
2016-11-22T04:35:54.803Z,0
2016-11-22T04:36:54.829Z,0
2016-11-22T04:37:55.165Z,0
2016-11-22T04:38:55.499Z,0
2016-11-22T04:39:55.870Z,0
2016-11-22T04:40:55.571Z,0
2016-11-22T04:41:55.269Z,0
2016-11-22T04:42:55.906Z,0
2016-11-22T04:43:55.298Z,0
2016-11-22T04:44:54.705Z,0
2016-11-22T04:45:55.341Z,0
2016-11-22T04:46:55.050Z,0
2016-11-22T04:47:56.027Z,0
2016-11-22T04:48:55.733Z,0
2016-11-22T04:49:55.438Z,0
2016-11-22T04:50:55.142Z,0
2016-11-22T04:51:55.494Z,0
2016-11-22T04:52:55.505Z,0
2016-11-22T04:53:55.553Z,0
2016-11-22T04:54:55.546Z,0
2016-11-22T04:55:55.576Z,0
2016-11-22T04:56:54.981Z,0
2016-11-22T04:57:55.303Z,0
2016-11-22T04:58:55.322Z,0
2016-11-22T04:59:55.347Z,0
2016-11-22T05:00:55.054Z,0
2016-11-22T05:01:55.708Z,0
2016-11-22T05:02:55.410Z,0
2016-11-22T05:03:55.442Z,0
2016-11-22T05:04:55.770Z,0
2016-11-22T05:05:55.475Z,0
2016-11-22T05:06:56.136Z,0
2016-11-22T05:07:56.160Z,0
2016-11-22T05:08:55.271Z,0
2016-11-22T05:09:55.882Z,0
2016-11-22T05:10:55.597Z,0
2016-11-22T05:11:56.262Z,0
2016-11-22T05:12:55.955Z,0
2016-11-22T05:13:55.973Z,0
2016-11-22T05:14:55.682Z,0
2016-11-22T05:15:56.041Z,0
2016-11-22T05:16:55.734Z,0
2016-11-22T05:17:56.069Z,0
2016-11-22T05:18:55.774Z,0
2016-11-22T05:19:55.499Z,0
2016-11-22T05:20:56.466Z,0
2016-11-22T05:21:56.170Z,0
2016-11-22T05:22:56.171Z,0
2016-11-22T05:23:56.535Z,0
2016-11-22T05:24:55.589Z,0
2016-11-22T05:25:56.360Z,0
2016-11-22T05:26:56.266Z,0
2016-11-22T05:27:55.975Z,0
2016-11-22T05:28:56.332Z,0
2016-11-22T05:29:56.342Z,0
2016-11-22T05:30:56.357Z,0
2016-11-22T05:31:56.379Z,0
2016-11-22T05:32:56.091Z,0
2016-11-22T05:33:56.422Z,0
2016-11-22T05:34:56.756Z,0
2016-11-22T05:35:56.164Z,0
2016-11-22T05:36:56.511Z,0
2016-11-22T05:37:56.200Z,0
2016-11-22T05:38:57.206Z,0
2016-11-22T05:39:55.935Z,0
2016-11-22T05:40:55.947Z,0
2016-11-22T05:41:56.601Z,0
2016-11-22T05:42:56.630Z,0
2016-11-22T05:43:56.983Z,0
2016-11-22T05:44:56.977Z,0
2016-11-22T05:45:56.690Z,0
2016-11-22T05:46:56.423Z,0
2016-11-22T05:47:56.734Z,0
2016-11-22T05:48:56.753Z,0
2016-11-22T05:49:56.801Z,0
2016-11-22T05:50:56.476Z,0
2016-11-22T05:51:56.517Z,0
2016-11-22T05:52:56.841Z,0
2016-11-22T05:53:56.878Z,0
2016-11-22T05:54:56.563Z,0
2016-11-22T05:55:57.536Z,0
2016-11-22T05:56:57.240Z,0
2016-11-22T05:57:57.285Z,0
2016-11-22T05:58:56.978Z,0
2016-11-22T05:59:57.013Z,0
2016-11-22T06:00:57.009Z,0
2016-11-22T06:01:56.747Z,0
2016-11-22T06:02:57.259Z,0
2016-11-22T06:03:57.394Z,0
2016-11-22T06:04:56.786Z,0
2016-11-22T06:05:57.122Z,0
2016-11-22T06:06:57.770Z,0
2016-11-22T06:07:56.848Z,0
2016-11-22T06:08:57.185Z,0
2016-11-22T06:09:56.894Z,0
2016-11-22T06:10:57.227Z,0
2016-11-22T06:11:56.936Z,0
2016-11-22T06:12:57.279Z,0
2016-11-22T06:13:57.613Z,0
2016-11-22T06:14:56.699Z,0
2016-11-22T06:15:57.028Z,0
2016-11-22T06:16:57.386Z,0
2016-11-22T06:17:57.711Z,0
2016-11-22T06:18:57.718Z,0
2016-11-22T06:19:57.106Z,0
2016-11-22T06:20:57.148Z,0
2016-11-22T06:21:57.807Z,0
2016-11-22T06:22:57.171Z,0
2016-11-22T06:23:57.508Z,0
2016-11-22T06:25:12.148Z,0
2016-11-22T06:25:56.926Z,0
2016-11-22T06:26:57.573Z,0
2016-11-22T06:27:57.598Z,0
2016-11-22T06:28:57.632Z,0
2016-11-22T06:29:57.319Z,0
2016-11-22T06:30:57.671Z,0
2016-11-22T06:31:57.998Z,0
2016-11-22T06:32:57.400Z,0
2016-11-22T06:33:57.719Z,0
2016-11-22T06:34:58.062Z,0
2016-11-22T06:35:57.136Z,0
2016-11-22T06:36:57.470Z,0
2016-11-22T06:37:57.810Z,0
2016-11-22T06:38:57.840Z,0
2016-11-22T06:39:57.860Z,0
2016-11-22T06:40:57.878Z,0
2016-11-22T06:41:57.898Z,0
2016-11-22T06:42:58.239Z,0
2016-11-22T06:43:57.942Z,0
2016-11-22T06:44:57.976Z,0
2016-11-22T06:45:58.297Z,0
2016-11-22T06:46:57.692Z,0
2016-11-22T06:47:57.717Z,0
2016-11-22T06:48:57.420Z,0
2016-11-22T06:49:57.793Z,0
2016-11-22T06:50:57.785Z,0
2016-11-22T06:51:58.118Z,0
2016-11-22T06:52:57.821Z,0
2016-11-22T06:53:57.841Z,0
2016-11-22T06:54:58.200Z,0
2016-11-22T06:55:58.209Z,0
2016-11-22T06:56:57.911Z,0
2016-11-22T06:57:58.247Z,0
2016-11-22T06:58:58.267Z,0
2016-11-22T06:59:58.288Z,0
2016-11-22T07:00:58.330Z,0
2016-11-22T07:01:58.331Z,0
2016-11-22T07:02:58.349Z,0
2016-11-22T07:03:58.692Z,5
2016-11-22T07:04:58.397Z,5
2016-11-22T07:05:58.745Z,5
2016-11-22T07:06:58.442Z,5
2016-11-22T07:07:58.158Z,5
2016-11-22T07:08:58.797Z,5
2016-11-22T07:09:58.186Z,5
2016-11-22T07:10:58.539Z,5
2016-11-22T07:11:58.859Z,5
2016-11-22T07:12:58.612Z,5
2016-11-22T07:13:58.903Z,5
2016-11-22T07:14:58.291Z,5
2016-11-22T07:15:58.654Z,5
2016-11-22T07:16:58.966Z,5
2016-11-22T07:17:58.675Z,5
2016-11-22T07:18:59.331Z,5
2016-11-22T07:19:58.398Z,5
2016-11-22T07:20:58.738Z,5
2016-11-22T07:21:58.760Z,5
2016-11-22T07:22:58.779Z,5
2016-11-22T07:23:58.793Z,5
2016-11-22T07:24:58.817Z,5
2016-11-22T07:25:58.840Z,10
2016-11-22T07:26:58.861Z,10
2016-11-22T07:27:58.248Z,10
2016-11-22T07:28:58.269Z,10
2016-11-22T07:29:58.936Z,10
2016-11-22T07:30:58.635Z,10
2016-11-22T07:31:58.647Z,10
2016-11-22T07:32:58.994Z,10
2016-11-22T07:33:59.011Z,10
2016-11-22T07:34:58.404Z,10
2016-11-22T07:35:59.062Z,10
2016-11-22T07:36:59.077Z,10
2016-11-22T07:37:58.786Z,10
2016-11-22T07:38:59.844Z,10
2016-11-22T07:39:59.140Z,10
2016-11-22T07:40:59.473Z,10
2016-11-22T07:41:59.505Z,10
2016-11-22T07:42:58.886Z,10
2016-11-22T07:43:59.225Z,10
2016-11-22T07:44:59.248Z,10
2016-11-22T07:45:59.270Z,10
2016-11-22T07:46:59.290Z,10
2016-11-22T07:47:58.991Z,10
2016-11-22T07:48:59.341Z,10
2016-11-22T07:49:59.029Z,10
2016-11-22T07:50:59.054Z,10
2016-11-22T07:51:59.079Z,10
2016-11-22T07:52:59.420Z,10
2016-11-22T07:53:59.433Z,10
2016-11-22T07:54:59.140Z,10
2016-11-22T07:55:59.789Z,10
2016-11-22T07:56:58.883Z,15
2016-11-22T07:57:59.859Z,15
2016-11-22T07:58:59.538Z,15
2016-11-22T07:59:59.266Z,15
2016-11-22T08:00:59.616Z,15
2016-11-22T08:01:59.916Z,15
2016-11-22T08:02:59.630Z,15
2016-11-22T08:03:59.331Z,15
2016-11-22T08:04:59.688Z,15
2016-11-22T08:05:59.747Z,15
2016-11-22T08:07:00.030Z,15
2016-11-22T08:07:59.746Z,15
2016-11-22T08:09:00.069Z,15
2016-11-22T08:09:59.460Z,15
2016-11-22T08:10:59.840Z,15
2016-11-22T08:11:59.839Z,15
2016-11-22T08:12:59.872Z,15
2016-11-22T08:13:59.549Z,20
2016-11-22T08:14:59.881Z,20
2016-11-22T08:15:59.638Z,20
2016-11-22T08:16:59.931Z,20
2016-11-22T08:18:00.575Z,20
2016-11-22T08:19:00.283Z,20
2016-11-22T08:20:00.312Z,20
2016-11-22T08:20:59.698Z,20
2016-11-22T08:21:59.719Z,25
2016-11-22T08:23:00.366Z,25
2016-11-22T08:23:59.800Z,25
2016-11-22T08:24:59.825Z,25
2016-11-22T08:25:59.485Z,30
2016-11-22T08:27:00.459Z,30
2016-11-22T08:27:59.841Z,30
2016-11-22T08:28:59.548Z,35
2016-11-22T08:29:59.900Z,35
2016-11-22T08:31:00.550Z,35
2016-11-22T08:31:59.973Z,35
2016-11-22T08:32:59.977Z,35
2016-11-22T08:34:00.297Z,35
2016-11-22T08:34:59.994Z,35
2016-11-22T08:36:00.333Z,40
2016-11-22T08:36:59.718Z,40
2016-11-22T08:37:59.741Z,40
2016-11-22T08:39:00.081Z,40
2016-11-22T08:40:00.739Z,40
2016-11-22T08:41:00.441Z,40
2016-11-22T08:42:00.775Z,40
2016-11-22T08:43:00.480Z,45
2016-11-22T08:44:00.198Z,45
2016-11-22T08:45:00.209Z,45
2016-11-22T08:46:00.230Z,50
2016-11-22T08:47:00.596Z,55
2016-11-22T08:48:00.276Z,60
2016-11-22T08:48:59.979Z,75
2016-11-22T08:50:00.638Z,100
2016-11-22T08:51:00.024Z,155
2016-11-22T08:52:00.377Z,135
2016-11-22T08:53:00.712Z,95
2016-11-22T08:54:00.418Z,80
2016-11-22T08:55:01.079Z,65
2016-11-22T08:56:00.468Z,55
2016-11-22T08:57:00.473Z,55
2016-11-22T08:58:01.441Z,55
2016-11-22T08:59:00.829Z,45
2016-11-22T09:00:00.853Z,50
2016-11-22T09:01:00.570Z,50
2016-11-22T09:02:00.271Z,40
2016-11-22T09:03:00.613Z,45
2016-11-22T09:04:00.939Z,50
2016-11-22T09:05:00.986Z,50
2016-11-22T09:06:00.671Z,50
2016-11-22T09:07:00.688Z,50
2016-11-22T09:08:00.719Z,50
2016-11-22T09:09:01.050Z,65
2016-11-22T09:10:01.119Z,70
2016-11-22T09:11:01.103Z,65
2016-11-22T09:12:01.765Z,70
2016-11-22T09:13:00.827Z,90
2016-11-22T09:14:01.164Z,115
2016-11-22T09:15:00.876Z,120
2016-11-22T09:16:01.212Z,95
2016-11-22T09:17:01.551Z,70
2016-11-22T09:18:01.267Z,60
2016-11-22T09:19:01.282Z,60
2016-11-22T09:20:01.297Z,75
2016-11-22T09:21:01.330Z,100
2016-11-22T09:22:01.364Z,105
2016-11-22T09:23:01.059Z,85
2016-11-22T09:24:01.084Z,85
2016-11-22T09:25:00.782Z,80
2016-11-22T09:26:01.792Z,65
2016-11-22T09:27:01.782Z,75
2016-11-22T09:28:01.485Z,65
2016-11-22T09:29:01.829Z,65
2016-11-22T09:30:01.214Z,75
2016-11-22T09:31:01.243Z,75
2016-11-22T09:32:01.893Z,75
2016-11-22T09:33:01.287Z,65
2016-11-22T09:34:01.636Z,70
2016-11-22T09:35:01.969Z,70
2016-11-22T09:36:01.046Z,60
2016-11-22T09:37:01.701Z,60
2016-11-22T09:38:01.402Z,60
2016-11-22T09:39:01.756Z,60
2016-11-22T09:40:01.142Z,65
2016-11-22T09:41:01.942Z,75
2016-11-22T09:42:01.498Z,90
2016-11-22T09:43:01.839Z,100
2016-11-22T09:44:01.544Z,75
2016-11-22T09:45:01.584Z,65
2016-11-22T09:46:01.276Z,75
2016-11-22T09:47:01.303Z,65
2016-11-22T09:48:01.962Z,75
2016-11-22T09:49:01.993Z,70
2016-11-22T09:50:02.328Z,55
2016-11-22T09:51:02.029Z,50
2016-11-22T09:52:01.747Z,40
2016-11-22T09:53:01.451Z,40
2016-11-22T09:54:02.125Z,40
2016-11-22T09:55:01.812Z,40
2016-11-22T09:56:01.848Z,40
2016-11-22T09:57:02.187Z,35
2016-11-22T09:58:02.212Z,35
2016-11-22T09:59:02.225Z,40
2016-11-22T10:00:01.624Z,45
2016-11-22T10:01:02.585Z,45
2016-11-22T10:02:01.979Z,45
2016-11-22T10:03:02.323Z,45
2016-11-22T10:04:02.032Z,40
2016-11-22T10:05:02.369Z,40
2016-11-22T10:06:02.407Z,35
2016-11-22T10:07:02.427Z,35
2016-11-22T10:08:02.139Z,35
2016-11-22T10:09:02.468Z,35
2016-11-22T10:10:02.829Z,35
2016-11-22T10:11:02.206Z,35
2016-11-22T10:12:02.864Z,30
2016-11-22T10:13:02.248Z,30
2016-11-22T10:14:02.896Z,30
2016-11-22T10:15:02.608Z,30
2016-11-22T10:16:02.658Z,30
2016-11-22T10:17:02.647Z,30
2016-11-22T10:18:02.363Z,30
2016-11-22T10:19:02.408Z,30
2016-11-22T10:20:02.421Z,30
2016-11-22T10:21:02.753Z,30
2016-11-22T10:22:02.487Z,30
2016-11-22T10:23:02.791Z,30
2016-11-22T10:24:02.838Z,30
2016-11-22T10:25:03.156Z,30
2016-11-22T10:26:02.864Z,30
2016-11-22T10:27:02.576Z,30
2016-11-22T10:28:02.912Z,30
2016-11-22T10:29:02.940Z,35
2016-11-22T10:30:02.345Z,35
2016-11-22T10:31:03.021Z,30
2016-11-22T10:32:02.701Z,30
2016-11-22T10:33:02.392Z,30
2016-11-22T10:34:03.050Z,30
2016-11-22T10:35:02.758Z,35
2016-11-22T10:36:03.431Z,35
2016-11-22T10:37:02.810Z,35
2016-11-22T10:38:03.149Z,35
2016-11-22T10:39:03.171Z,35
2016-11-22T10:40:03.190Z,35
2016-11-22T10:41:02.903Z,35
2016-11-22T10:42:03.873Z,35
2016-11-22T10:43:03.271Z,35
2016-11-22T10:44:02.978Z,35
2016-11-22T10:45:02.998Z,35
2016-11-22T10:46:03.650Z,30
2016-11-22T10:47:03.362Z,30
2016-11-22T10:48:03.421Z,30
2016-11-22T10:49:03.399Z,30
2016-11-22T10:50:03.123Z,30
2016-11-22T10:51:03.471Z,30
2016-11-22T10:52:03.151Z,30
2016-11-22T10:53:03.641Z,30
2016-11-22T10:54:03.533Z,30
2016-11-22T10:55:03.886Z,30
2016-11-22T10:56:03.565Z,30
2016-11-22T10:57:03.276Z,30
2016-11-22T10:58:02.994Z,25
2016-11-22T10:59:03.635Z,25
2016-11-22T11:00:03.366Z,25
2016-11-22T11:01:03.690Z,25
2016-11-22T11:02:03.709Z,25
2016-11-22T11:03:04.045Z,25
2016-11-22T11:04:04.092Z,25
2016-11-22T11:05:03.797Z,25
2016-11-22T11:06:04.113Z,25
2016-11-22T11:07:03.846Z,25
2016-11-22T11:08:03.862Z,25
2016-11-22T11:09:03.902Z,20
2016-11-22T11:10:03.264Z,20
2016-11-22T11:11:03.600Z,20
2016-11-22T11:12:04.257Z,20
2016-11-22T11:13:03.962Z,20
2016-11-22T11:14:03.670Z,20
2016-11-22T11:15:03.380Z,20
2016-11-22T11:16:03.720Z,20
2016-11-22T11:17:04.054Z,20
2016-11-22T11:18:04.072Z,20
2016-11-22T11:19:04.422Z,20
2016-11-22T11:20:04.448Z,15
2016-11-22T11:21:03.840Z,15
2016-11-22T11:22:04.485Z,15
2016-11-22T11:23:03.561Z,15
2016-11-22T11:24:04.536Z,15
2016-11-22T11:25:03.930Z,15
2016-11-22T11:26:04.602Z,15
2016-11-22T11:27:03.658Z,15
2016-11-22T11:28:03.999Z,15
2016-11-22T11:29:04.014Z,15
2016-11-22T11:30:04.035Z,15
2016-11-22T11:31:04.384Z,15
2016-11-22T11:32:04.094Z,15
2016-11-22T11:33:04.420Z,15
2016-11-22T11:34:03.832Z,15
2016-11-22T11:35:04.155Z,15
2016-11-22T11:36:04.513Z,15
2016-11-22T11:37:04.517Z,15
2016-11-22T11:38:03.911Z,15
2016-11-22T11:39:04.249Z,15
2016-11-22T11:40:04.584Z,15
2016-11-22T11:41:04.606Z,15
2016-11-22T11:42:04.002Z,15
2016-11-22T11:43:04.343Z,15
2016-11-22T11:44:04.392Z,15
2016-11-22T11:45:04.432Z,15
2016-11-22T11:46:04.407Z,15
2016-11-22T11:47:05.371Z,15
2016-11-22T11:48:04.785Z,15
2016-11-22T11:49:04.505Z,15
2016-11-22T11:50:04.193Z,15
2016-11-22T11:51:04.829Z,15
2016-11-22T11:52:04.556Z,15
2016-11-22T11:53:05.208Z,15
2016-11-22T11:54:04.945Z,10
2016-11-22T11:55:04.954Z,10
2016-11-22T11:56:05.268Z,10
2016-11-22T11:57:04.978Z,10
2016-11-22T11:58:05.005Z,10
2016-11-22T11:59:04.387Z,10
2016-11-22T12:00:05.381Z,10
2016-11-22T12:01:04.751Z,10
2016-11-22T12:02:04.768Z,15
2016-11-22T12:03:05.124Z,15
2016-11-22T12:04:05.485Z,15
2016-11-22T12:05:04.842Z,15
2016-11-22T12:06:04.543Z,15
2016-11-22T12:07:05.531Z,15
2016-11-22T12:08:04.930Z,15
2016-11-22T12:09:05.274Z,15
2016-11-22T12:10:05.295Z,15
2016-11-22T12:11:05.289Z,15
2016-11-22T12:12:05.003Z,15
2016-11-22T12:13:05.653Z,15
2016-11-22T12:14:05.055Z,15
2016-11-22T12:15:05.444Z,15
2016-11-22T12:16:05.106Z,15
2016-11-22T12:17:05.458Z,15
2016-11-22T12:18:05.459Z,15
2016-11-22T12:19:05.795Z,15
2016-11-22T12:20:05.502Z,15
2016-11-22T12:21:05.205Z,15
2016-11-22T12:22:05.568Z,15
2016-11-22T12:23:05.271Z,15
2016-11-22T12:24:05.602Z,15
2016-11-22T12:25:05.928Z,15
2016-11-22T12:26:05.638Z,15
2016-11-22T12:27:05.663Z,15
2016-11-22T12:28:05.383Z,15
2016-11-22T12:29:05.706Z,15
2016-11-22T12:30:05.415Z,15
2016-11-22T12:31:05.116Z,15
2016-11-22T12:32:05.777Z,15
2016-11-22T12:33:06.242Z,15
2016-11-22T12:34:05.503Z,15
2016-11-22T12:35:05.523Z,15
2016-11-22T12:36:06.189Z,15
2016-11-22T12:37:05.581Z,15
2016-11-22T12:38:06.227Z,15
2016-11-22T12:39:05.932Z,15
2016-11-22T12:40:05.345Z,15
2016-11-22T12:41:05.698Z,15
2016-11-22T12:42:05.687Z,15
2016-11-22T12:43:06.350Z,15
2016-11-22T12:44:06.678Z,15
2016-11-22T12:45:06.074Z,15
2016-11-22T12:46:05.774Z,15
2016-11-22T12:47:05.800Z,15
2016-11-22T12:48:06.764Z,15
2016-11-22T12:49:06.474Z,15
2016-11-22T12:50:05.875Z,15
2016-11-22T12:51:06.239Z,15
2016-11-22T12:52:06.226Z,15
2016-11-22T12:53:06.566Z,15
2016-11-22T12:54:05.640Z,15
2016-11-22T12:55:05.997Z,15
2016-11-22T12:56:06.956Z,15
2016-11-22T12:57:06.026Z,15
2016-11-22T12:58:06.385Z,15
2016-11-22T12:59:06.416Z,15
2016-11-22T13:00:06.415Z,15
2016-11-22T13:01:06.439Z,15
2016-11-22T13:02:06.470Z,15
2016-11-22T13:03:05.851Z,15
2016-11-22T13:04:06.820Z,15
2016-11-22T13:05:06.210Z,10
2016-11-22T13:06:06.554Z,10
2016-11-22T13:07:06.901Z,10
2016-11-22T13:08:06.597Z,10
2016-11-22T13:09:06.619Z,10
2016-11-22T13:10:06.327Z,10
2016-11-22T13:11:06.348Z,10
2016-11-22T13:12:06.380Z,10
2016-11-22T13:13:06.390Z,10
2016-11-22T13:14:06.413Z,10
2016-11-22T13:15:06.763Z,10
2016-11-22T13:16:06.462Z,10
2016-11-22T13:17:06.484Z,10
2016-11-22T13:18:06.837Z,10
2016-11-22T13:19:07.173Z,10
2016-11-22T13:20:07.182Z,10
2016-11-22T13:21:06.578Z,10
2016-11-22T13:22:06.597Z,10
2016-11-22T13:23:07.575Z,10
2016-11-22T13:24:07.269Z,10
2016-11-22T13:25:06.663Z,10
2016-11-22T13:26:07.336Z,10
2016-11-22T13:27:06.717Z,10
2016-11-22T13:28:07.380Z,10
2016-11-22T13:29:07.389Z,10
2016-11-22T13:30:07.106Z,10
2016-11-22T13:31:06.809Z,10
2016-11-22T13:32:07.146Z,10
2016-11-22T13:33:07.488Z,10
2016-11-22T13:34:06.869Z,10
2016-11-22T13:35:06.897Z,10
2016-11-22T13:36:21.823Z,10
2016-11-22T13:37:07.571Z,10
2016-11-22T13:38:06.669Z,5
2016-11-22T13:39:08.008Z,5
2016-11-22T13:40:07.326Z,5
2016-11-22T13:41:07.343Z,10
2016-11-22T13:42:07.052Z,10
2016-11-22T13:43:08.022Z,10
2016-11-22T13:44:07.416Z,10
2016-11-22T13:45:07.117Z,10
2016-11-22T13:46:07.786Z,10
2016-11-22T13:47:07.795Z,10
2016-11-22T13:48:07.189Z,10
2016-11-22T13:49:07.857Z,10
2016-11-22T13:50:07.890Z,10
2016-11-22T13:51:07.860Z,10
2016-11-22T13:52:07.543Z,10
2016-11-22T13:53:06.997Z,10
2016-11-22T13:54:07.325Z,10
2016-11-22T13:55:07.038Z,10
2016-11-22T13:56:07.373Z,10
2016-11-22T13:57:07.738Z,10
2016-11-22T13:58:08.063Z,10
2016-11-22T13:59:07.756Z,10
2016-11-22T14:00:07.150Z,10
2016-11-22T14:01:07.809Z,10
2016-11-22T14:02:07.534Z,10
2016-11-22T14:03:07.844Z,10
2016-11-22T14:04:07.874Z,10
2016-11-22T14:05:08.213Z,10
2016-11-22T14:06:07.929Z,10
2016-11-22T14:07:08.566Z,10
2016-11-22T14:08:07.333Z,5
2016-11-22T14:09:07.670Z,5
2016-11-22T14:10:08.325Z,5
2016-11-22T14:11:07.717Z,5
2016-11-22T14:12:08.063Z,5
2016-11-22T14:13:07.760Z,5
2016-11-22T14:14:08.119Z,5
2016-11-22T14:15:07.503Z,5
2016-11-22T14:16:07.823Z,5
2016-11-22T14:17:08.182Z,5
2016-11-22T14:18:08.186Z,5
2016-11-22T14:19:08.220Z,5
2016-11-22T14:20:08.897Z,5
2016-11-22T14:21:08.259Z,5
2016-11-22T14:22:08.303Z,5
2016-11-22T14:23:07.994Z,5
2016-11-22T14:24:08.021Z,5
2016-11-22T14:25:08.996Z,5
2016-11-22T14:26:07.741Z,5
2016-11-22T14:27:08.394Z,5
2016-11-22T14:28:08.738Z,5
2016-11-22T14:29:08.467Z,5
2016-11-22T14:30:08.780Z,5
2016-11-22T14:31:08.173Z,5
2016-11-22T14:32:08.511Z,5
2016-11-22T14:33:08.883Z,5